createdAt,value
2017-08-03T00:00:34.875Z,99.93
2017-08-03T00:01:47.234Z,99.99
2017-08-03T00:02:59.485Z,99.99
2017-08-03T00:04:12.025Z,99.99
2017-08-03T00:05:24.275Z,99.99
2017-08-03T00:06:36.598Z,99.99
2017-08-03T00:07:49.188Z,99.99
2017-08-03T00:09:01.786Z,99.99
2017-08-03T00:10:14.362Z,99.99
2017-08-03T00:11:26.938Z,99.99
2017-08-03T00:12:39.558Z,99.99
2017-08-03T00:13:52.193Z,99.99
2017-08-03T00:15:04.775Z,99.99
2017-08-03T00:16:17.053Z,99.99
2017-08-03T00:17:29.734Z,99.99
2017-08-03T00:18:42.332Z,99.99
2017-08-03T00:19:54.329Z,99.99
2017-08-03T00:21:06.856Z,99.99
2017-08-03T00:22:19.120Z,99.99
2017-08-03T00:23:31.097Z,99.99
2017-08-03T00:24:43.432Z,99.99
2017-08-03T00:25:56.007Z,99.99
2017-08-03T00:27:07.991Z,99.99
2017-08-03T00:28:20.523Z,99.99
2017-08-03T00:29:33.128Z,99.99
2017-08-03T00:30:45.404Z,99.99
2017-08-03T00:31:58.012Z,99.99
2017-08-03T00:33:10.604Z,99.99
2017-08-03T00:34:23.222Z,99.99
2017-08-03T00:35:35.795Z,99.99
2017-08-03T00:36:47.771Z,99.99
2017-08-03T00:38:00.040Z,99.99
2017-08-03T00:39:12.608Z,99.99
2017-08-03T00:40:24.934Z,99.99
2017-08-03T00:41:37.511Z,99.99
2017-08-03T00:42:50.120Z,99.99
2017-08-03T00:44:02.359Z,99.99
2017-08-03T00:45:14.963Z,99.99
2017-08-03T00:46:27.619Z,99.99
2017-08-03T00:47:40.212Z,99.99
2017-08-03T00:48:52.785Z,99.99
2017-08-03T00:50:05.088Z,99.99
2017-08-03T00:51:17.717Z,99.99
2017-08-03T00:52:30.292Z,99.99
2017-08-03T00:53:42.883Z,99.99
2017-08-03T00:54:55.465Z,99.99
2017-08-03T00:56:07.449Z,99.99
2017-08-03T00:57:19.990Z,99.99
2017-08-03T00:58:32.236Z,99.99
2017-08-03T00:59:44.538Z,99.99
2017-08-03T01:00:57.159Z,99.99
2017-08-03T01:02:09.465Z,99.99
2017-08-03T01:03:21.804Z,99.99
2017-08-03T01:04:34.407Z,99.99
2017-08-03T01:05:46.665Z,99.99
2017-08-03T01:06:58.631Z,99.99
2017-08-03T01:08:10.875Z,99.99
2017-08-03T01:09:23.172Z,99.99
2017-08-03T01:10:35.094Z,99.99
2017-08-03T01:11:47.680Z,99.99
2017-08-03T01:13:00.284Z,99.99
2017-08-03T01:14:12.869Z,99.99
2017-08-03T01:15:25.513Z,99.99
2017-08-03T01:16:38.148Z,99.99
2017-08-03T01:17:50.826Z,99.99
2017-08-03T01:19:03.357Z,99.99
2017-08-03T01:20:15.910Z,99.99
2017-08-03T01:21:28.490Z,99.99
2017-08-03T01:22:40.460Z,99.99
2017-08-03T01:23:52.699Z,99.99
2017-08-03T01:25:04.945Z,99.99
2017-08-03T01:26:17.566Z,99.99
2017-08-03T01:27:30.450Z,99.99
2017-08-03T01:28:42.741Z,99.99
2017-08-03T01:29:55.366Z,99.99
2017-08-03T01:31:07.959Z,99.99
2017-08-03T01:32:20.598Z,99.99
2017-08-03T01:33:33.159Z,99.99
2017-08-03T01:34:45.444Z,99.99
2017-08-03T01:35:57.766Z,99.99
2017-08-03T01:37:10.329Z,99.99
2017-08-03T01:38:22.950Z,99.99
2017-08-03T01:39:35.507Z,99.99
2017-08-03T01:40:48.173Z,99.99
2017-08-03T01:42:00.748Z,99.99
2017-08-03T01:43:13.057Z,99.99
2017-08-03T01:44:25.636Z,99.99
2017-08-03T01:45:38.199Z,99.99
2017-08-03T01:46:50.809Z,99.99
2017-08-03T01:48:03.067Z,99.99
2017-08-03T01:49:15.671Z,99.99
2017-08-03T01:50:27.977Z,99.99
2017-08-03T01:51:39.988Z,99.99
2017-08-03T01:52:52.275Z,99.99
2017-08-03T01:54:04.833Z,99.99
2017-08-03T01:55:17.383Z,99.99
2017-08-03T01:56:30.045Z,99.99
2017-08-03T01:57:42.623Z,99.99
2017-08-03T01:58:55.158Z,99.99
2017-08-03T02:00:07.084Z,99.99
2017-08-03T02:01:19.705Z,99.99
2017-08-03T02:02:32.303Z,99.99
2017-08-03T02:03:44.620Z,99.99
2017-08-03T02:04:56.644Z,99.99
2017-08-03T02:06:08.880Z,99.99
2017-08-03T02:07:21.162Z,99.99
2017-08-03T02:08:33.734Z,99.99
2017-08-03T02:09:46.330Z,99.99
2017-08-03T02:10:58.938Z,99.99
2017-08-03T02:12:11.210Z,99.99
2017-08-03T02:13:23.813Z,99.99
2017-08-03T02:14:36.138Z,99.99
2017-08-03T02:15:48.503Z,99.99
2017-08-03T02:17:00.788Z,99.99
2017-08-03T02:18:13.422Z,99.99
2017-08-03T02:19:25.772Z,99.99
2017-08-03T02:20:38.379Z,99.99
2017-08-03T02:21:51.212Z,99.99
2017-08-03T02:23:03.467Z,99.99
2017-08-03T02:24:16.118Z,99.99
2017-08-03T02:25:28.139Z,99.99
2017-08-03T02:26:40.118Z,99.99
2017-08-03T02:27:52.764Z,99.99
2017-08-03T02:29:05.315Z,99.99
2017-08-03T02:30:17.892Z,99.99
2017-08-03T02:31:30.153Z,99.99
2017-08-03T02:32:42.677Z,99.99
2017-08-03T02:33:55.305Z,99.99
2017-08-03T02:35:07.921Z,99.99
2017-08-03T02:36:20.179Z,99.99
2017-08-03T02:37:32.733Z,99.99
2017-08-03T02:38:45.361Z,99.99
2017-08-03T02:39:57.916Z,99.99
2017-08-03T02:41:10.233Z,99.99
2017-08-03T02:42:22.842Z,99.99
2017-08-03T02:43:35.423Z,99.99
2017-08-03T02:44:48.034Z,99.99
2017-08-03T02:46:00.289Z,99.99
2017-08-03T02:47:12.913Z,99.99
2017-08-03T02:48:25.596Z,99.99
2017-08-03T02:49:37.870Z,99.99
2017-08-03T02:50:50.467Z,99.99
2017-08-03T02:52:03.094Z,99.99
2017-08-03T02:53:15.696Z,99.99
2017-08-03T02:54:27.960Z,99.99
2017-08-03T02:55:40.573Z,99.99
2017-08-03T02:56:52.842Z,99.99
2017-08-03T02:58:05.438Z,99.99
2017-08-03T02:59:17.357Z,99.99
2017-08-03T03:00:29.640Z,99.99
2017-08-03T03:01:42.173Z,99.99
2017-08-03T03:02:54.825Z,99.99
2017-08-03T03:04:07.431Z,99.99
2017-08-03T03:05:19.724Z,99.99
2017-08-03T03:06:32.287Z,99.99
2017-08-03T03:07:44.912Z,99.99
2017-08-03T03:08:57.550Z,99.99
2017-08-03T03:10:10.164Z,99.99
2017-08-03T03:11:22.735Z,99.99
2017-08-03T03:12:35.349Z,99.99
2017-08-03T03:13:47.696Z,99.99
2017-08-03T03:15:00.266Z,99.99
2017-08-03T03:16:13.155Z,99.99
2017-08-03T03:17:25.498Z,99.99
2017-08-03T03:18:38.085Z,99.99
2017-08-03T03:19:50.581Z,99.99
2017-08-03T03:21:03.078Z,99.99
2017-08-03T03:22:15.598Z,99.99
2017-08-03T03:23:27.888Z,99.99
2017-08-03T03:24:40.528Z,99.99
2017-08-03T03:25:53.136Z,99.99
2017-08-03T03:27:05.711Z,99.99
2017-08-03T03:28:18.023Z,99.99
2017-08-03T03:29:30.585Z,99.99
2017-08-03T03:30:43.233Z,99.99
2017-08-03T03:31:55.834Z,99.99
2017-08-03T03:33:08.427Z,99.99
2017-08-03T03:34:21.041Z,99.99
2017-08-03T03:35:33.289Z,99.99
2017-08-03T03:36:45.914Z,99.99
2017-08-03T03:37:57.582Z,99.99
2017-08-03T03:39:10.174Z,99.99
2017-08-03T03:40:22.205Z,99.99
2017-08-03T03:41:34.233Z,99.99
2017-08-03T03:42:46.836Z,99.99
2017-08-03T03:43:59.400Z,99.99
2017-08-03T03:45:11.935Z,99.99
2017-08-03T03:46:24.510Z,99.99
2017-08-03T03:47:36.852Z,99.99
2017-08-03T03:48:49.430Z,99.99
2017-08-03T03:50:01.429Z,99.99
2017-08-03T03:51:14.024Z,99.99
2017-08-03T03:52:26.307Z,99.99
2017-08-03T03:53:39.000Z,99.99
2017-08-03T03:54:50.987Z,99.99
2017-08-03T03:56:03.270Z,99.99
2017-08-03T03:57:15.829Z,99.99
2017-08-03T03:58:28.093Z,99.99
2017-08-03T03:59:40.678Z,99.99
2017-08-03T04:00:53.301Z,99.99
2017-08-03T04:02:05.582Z,99.99
2017-08-03T04:03:18.195Z,99.99
2017-08-03T04:04:30.512Z,99.99
2017-08-03T04:05:42.844Z,99.99
2017-08-03T04:06:55.097Z,99.99
2017-08-03T04:08:07.623Z,99.99
2017-08-03T04:09:19.959Z,99.99
2017-08-03T04:10:32.516Z,99.99
2017-08-03T04:11:44.480Z,99.99
2017-08-03T04:12:57.052Z,99.99
2017-08-03T04:14:09.659Z,99.99
2017-08-03T04:15:22.226Z,99.99
2017-08-03T04:16:34.530Z,99.99
2017-08-03T04:17:46.817Z,99.99
2017-08-03T04:18:59.396Z,99.99
2017-08-03T04:20:11.928Z,99.99
2017-08-03T04:21:24.723Z,99.99
2017-08-03T04:22:37.088Z,99.99
2017-08-03T04:23:49.401Z,99.99
2017-08-03T04:25:01.701Z,99.99
2017-08-03T04:26:14.271Z,99.99
2017-08-03T04:27:26.571Z,99.99
2017-08-03T04:28:38.881Z,99.99
2017-08-03T04:29:51.405Z,99.99
2017-08-03T04:31:03.734Z,99.99
2017-08-03T04:32:16.360Z,99.99
2017-08-03T04:33:28.616Z,99.99
2017-08-03T04:34:41.228Z,99.99
2017-08-03T04:35:53.785Z,99.99
2017-08-03T04:37:05.784Z,99.99
2017-08-03T04:38:18.124Z,99.99
2017-08-03T04:39:30.712Z,99.99
2017-08-03T04:40:42.976Z,99.99
2017-08-03T04:41:55.510Z,99.99
2017-08-03T04:43:08.109Z,99.99
2017-08-03T04:44:20.716Z,99.99
2017-08-03T04:45:32.968Z,99.99
2017-08-03T04:46:45.556Z,99.99
2017-08-03T04:47:57.888Z,99.99
2017-08-03T04:49:10.182Z,99.99
2017-08-03T04:50:22.812Z,99.99
2017-08-03T04:51:34.781Z,99.99
2017-08-03T04:52:47.332Z,99.99
2017-08-03T04:53:59.656Z,99.99
2017-08-03T04:55:12.288Z,99.99
2017-08-03T04:56:24.298Z,99.99
2017-08-03T04:57:36.901Z,99.99
2017-08-03T04:58:49.429Z,99.99
2017-08-03T05:00:01.985Z,99.99
2017-08-03T05:01:14.625Z,99.99
2017-08-03T05:02:26.952Z,99.99
2017-08-03T05:03:39.239Z,99.99
2017-08-03T05:04:51.507Z,99.99
2017-08-03T05:06:04.183Z,99.99
2017-08-03T05:07:16.724Z,99.99
2017-08-03T05:08:29.363Z,99.99
2017-08-03T05:09:41.595Z,99.99
2017-08-03T05:10:54.192Z,99.99
2017-08-03T05:12:06.463Z,99.99
2017-08-03T05:13:19.042Z,99.99
2017-08-03T05:14:31.291Z,99.99
2017-08-03T05:15:43.574Z,99.99
2017-08-03T05:16:55.785Z,99.99
2017-08-03T05:18:08.050Z,99.99
2017-08-03T05:19:20.299Z,99.99
2017-08-03T05:20:32.909Z,99.99
2017-08-03T05:21:45.548Z,99.99
2017-08-03T05:22:58.150Z,99.99
2017-08-03T05:24:10.445Z,99.99
2017-08-03T05:25:22.983Z,99.99
2017-08-03T05:26:35.603Z,99.99
2017-08-03T05:27:47.887Z,99.99
2017-08-03T05:29:00.544Z,99.99
2017-08-03T05:30:13.104Z,99.99
2017-08-03T05:31:25.111Z,99.99
2017-08-03T05:32:37.678Z,99.99
2017-08-03T05:33:49.960Z,99.99
2017-08-03T05:35:02.175Z,99.99
2017-08-03T05:36:14.753Z,99.99
2017-08-03T05:37:27.359Z,99.99
2017-08-03T05:38:40.012Z,99.99
2017-08-03T05:39:52.302Z,99.99
2017-08-03T05:41:04.597Z,99.99
2017-08-03T05:42:17.180Z,99.99
2017-08-03T05:43:30.101Z,99.99
2017-08-03T05:44:42.398Z,99.99
2017-08-03T05:45:54.093Z,99.99
2017-08-03T05:47:06.701Z,99.99
2017-08-03T05:48:18.665Z,99.99
2017-08-03T05:49:31.311Z,99.99
2017-08-03T05:50:43.581Z,99.99
2017-08-03T05:51:55.853Z,99.99
2017-08-03T05:53:08.073Z,99.99
2017-08-03T05:54:20.699Z,99.99
2017-08-03T05:55:33.316Z,99.99
2017-08-03T05:56:45.956Z,99.99
2017-08-03T05:57:58.205Z,99.99
2017-08-03T05:59:11.057Z,99.99
2017-08-03T06:00:23.663Z,99.99
2017-08-03T06:01:36.295Z,99.99
2017-08-03T06:02:48.937Z,99.99
2017-08-03T06:04:01.501Z,99.99
2017-08-03T06:05:14.121Z,99.99
2017-08-03T06:06:26.402Z,99.99
2017-08-03T06:07:38.674Z,99.99
2017-08-03T06:08:51.309Z,99.99
2017-08-03T06:10:03.289Z,99.99
2017-08-03T06:11:15.609Z,99.99
2017-08-03T06:12:28.272Z,99.99
2017-08-03T06:13:40.612Z,99.99
2017-08-03T06:14:53.190Z,99.99
2017-08-03T06:16:05.458Z,99.99
2017-08-03T06:17:17.701Z,99.99
2017-08-03T06:18:30.388Z,99.99
2017-08-03T06:19:42.972Z,99.99
2017-08-03T06:20:55.285Z,99.99
2017-08-03T06:22:07.827Z,99.99
2017-08-03T06:23:20.419Z,99.99
2017-08-03T06:24:33.068Z,99.99
2017-08-03T06:25:45.683Z,99.99
2017-08-03T06:26:58.012Z,99.11
2017-08-03T06:28:09.658Z,98.93
2017-08-03T06:29:22.028Z,98.39
2017-08-03T06:30:34.587Z,98.78
2017-08-03T06:31:47.164Z,99.21
2017-08-03T06:32:59.777Z,98.93
2017-08-03T06:34:12.324Z,98.25
2017-08-03T06:35:24.630Z,97.13
2017-08-03T06:36:36.951Z,97.04
2017-08-03T06:37:48.902Z,96.6
2017-08-03T06:39:01.280Z,96.6
2017-08-03T06:40:13.613Z,96.02
2017-08-03T06:41:26.237Z,96.07
2017-08-03T06:42:38.829Z,94.9
2017-08-03T06:43:51.158Z,93.84
2017-08-03T06:45:03.481Z,93.35
2017-08-03T06:46:15.794Z,94.13
2017-08-03T06:47:28.429Z,94.13
2017-08-03T06:48:40.998Z,93.26
2017-08-03T06:49:53.592Z,94.23
2017-08-03T06:51:06.247Z,93.7
2017-08-03T06:52:18.509Z,93.79
2017-08-03T06:53:30.543Z,93.7
2017-08-03T06:54:43.134Z,93.21
2017-08-03T06:55:55.384Z,93.02
2017-08-03T06:57:07.942Z,93.11
2017-08-03T06:58:20.505Z,92.92
2017-08-03T06:59:33.171Z,93.6
2017-08-03T07:00:45.790Z,93.3
2017-08-03T07:01:57.823Z,92.72
2017-08-03T07:03:10.124Z,93.4
2017-08-03T07:04:22.782Z,93.4
2017-08-03T07:05:35.078Z,93.3
2017-08-03T07:06:47.672Z,93.3
2017-08-03T07:07:59.959Z,92.92
2017-08-03T07:09:12.186Z,93.11
2017-08-03T07:10:24.436Z,92.96
2017-08-03T07:11:37.060Z,93.16
2017-08-03T07:12:49.343Z,92.96
2017-08-03T07:14:01.932Z,93.16
2017-08-03T07:15:14.542Z,93.26
2017-08-03T07:16:27.064Z,93.26
2017-08-03T07:17:39.367Z,93.16
2017-08-03T07:18:51.637Z,93.16
2017-08-03T07:20:03.933Z,93.26
2017-08-03T07:21:16.223Z,92.96
2017-08-03T07:22:28.828Z,92.96
2017-08-03T07:23:41.415Z,93.2
2017-08-03T07:24:53.117Z,93.01
2017-08-03T07:26:05.138Z,93.2
2017-08-03T07:27:17.732Z,92.82
2017-08-03T07:28:30.308Z,93.01
2017-08-03T07:29:43.010Z,92.62
2017-08-03T07:30:55.575Z,92.43
2017-08-03T07:32:07.546Z,93.01
2017-08-03T07:33:20.158Z,93.11
2017-08-03T07:34:32.741Z,93.01
2017-08-03T07:35:45.091Z,92.23
2017-08-03T07:36:57.347Z,92.72
2017-08-03T07:38:08.749Z,93.01
2017-08-03T07:39:21.372Z,92.72
2017-08-03T07:40:33.948Z,92.33
2017-08-03T07:41:46.182Z,92.04
2017-08-03T07:42:57.841Z,91.85
2017-08-03T07:44:10.137Z,91.85
2017-08-03T07:45:22.641Z,90.82
2017-08-03T07:46:34.944Z,91.02
2017-08-03T07:47:47.250Z,90.73
2017-08-03T07:48:59.853Z,90.63
2017-08-03T07:50:11.799Z,89.66
2017-08-03T07:51:24.362Z,89.66
2017-08-03T07:52:36.969Z,89.27
2017-08-03T07:53:49.611Z,89.56
2017-08-03T07:55:02.149Z,90.14
2017-08-03T07:56:14.111Z,90.05
2017-08-03T07:57:26.655Z,90.05
2017-08-03T07:58:39.519Z,91.11
2017-08-03T07:59:51.468Z,91.11
2017-08-03T08:01:04.036Z,90.82
2017-08-03T08:02:16.358Z,90.24
2017-08-03T08:03:28.672Z,90.53
2017-08-03T08:04:40.949Z,90.34
2017-08-03T08:05:53.206Z,90.48
2017-08-03T08:07:05.527Z,90
2017-08-03T08:08:17.505Z,90.24
2017-08-03T08:09:30.132Z,90.05
2017-08-03T08:10:42.791Z,89.47
2017-08-03T08:11:55.075Z,89.17
2017-08-03T08:13:07.351Z,89.47
2017-08-03T08:14:19.616Z,89.27
2017-08-03T08:15:31.930Z,89.66
2017-08-03T08:16:44.559Z,89.95
2017-08-03T08:17:57.116Z,90.44
2017-08-03T08:19:09.702Z,90.87
2017-08-03T08:20:22.274Z,91.02
2017-08-03T08:21:34.893Z,91.16
2017-08-03T08:22:46.560Z,91.06
2017-08-03T08:23:57.933Z,91.25
2017-08-03T08:25:09.932Z,91.16
2017-08-03T08:26:22.487Z,90
2017-08-03T08:27:34.790Z,90.19
2017-08-03T08:28:46.721Z,90.38
2017-08-03T08:29:58.741Z,90.09
2017-08-03T08:31:11.096Z,89.9
2017-08-03T08:32:23.731Z,90.09
2017-08-03T08:33:36.292Z,89.61
2017-08-03T08:34:48.326Z,89.7
2017-08-03T08:36:00.642Z,90.67
2017-08-03T08:37:13.192Z,90.48
2017-08-03T08:38:25.485Z,90.58
2017-08-03T08:39:37.173Z,89.51
2017-08-03T08:40:49.202Z,90.09
2017-08-03T08:42:01.582Z,90.58
2017-08-03T08:43:14.212Z,90.87
2017-08-03T08:44:26.802Z,90.77
2017-08-03T08:45:39.403Z,90.19
2017-08-03T08:46:51.948Z,90.38
2017-08-03T08:48:04.201Z,90.14
2017-08-03T08:49:16.851Z,90.24
2017-08-03T08:50:29.154Z,90.14
2017-08-03T08:51:41.465Z,90.44
2017-08-03T08:52:54.015Z,90.34
2017-08-03T08:54:06.681Z,91.02
2017-08-03T08:55:19.243Z,91.79
2017-08-03T08:56:31.899Z,91.75
2017-08-03T08:57:44.518Z,90.82
2017-08-03T08:58:56.808Z,91.07
2017-08-03T09:00:09.438Z,91.07
2017-08-03T09:01:22.086Z,91.27
2017-08-03T09:02:34.378Z,91.75
2017-08-03T09:03:46.378Z,91.75
2017-08-03T09:04:58.346Z,92.23
2017-08-03T09:06:10.292Z,92.43
2017-08-03T09:07:22.280Z,92.33
2017-08-03T09:08:34.841Z,92.96
2017-08-03T09:09:47.407Z,92.86
2017-08-03T09:10:59.978Z,93.06
2017-08-03T09:12:12.600Z,92.96
2017-08-03T09:13:24.567Z,93.26
2017-08-03T09:14:37.245Z,93.45
2017-08-03T09:15:49.550Z,93.16
2017-08-03T09:17:01.832Z,92.96
2017-08-03T09:18:13.812Z,93.06
2017-08-03T09:19:26.413Z,92.58
2017-08-03T09:20:38.118Z,91.99
2017-08-03T09:21:50.369Z,90.73
2017-08-03T09:23:02.683Z,90.16
2017-08-03T09:24:15.233Z,89.37
2017-08-03T09:25:27.880Z,89.67
2017-08-03T09:26:40.533Z,89.76
2017-08-03T09:27:53.110Z,88.89
2017-08-03T09:29:05.402Z,88.02
2017-08-03T09:30:17.713Z,88.7
2017-08-03T09:31:29.959Z,88.6
2017-08-03T09:32:42.555Z,88.51
2017-08-03T09:33:54.808Z,88.41
2017-08-03T09:35:07.172Z,88.31
2017-08-03T09:36:19.726Z,88.41
2017-08-03T09:37:32.316Z,88.12
2017-08-03T09:38:44.344Z,88.31
2017-08-03T09:39:56.603Z,88.31
2017-08-03T09:41:08.932Z,88.79
2017-08-03T09:42:21.510Z,88.31
2017-08-03T09:43:34.066Z,88.31
2017-08-03T09:44:46.653Z,88.51
2017-08-03T09:45:58.948Z,88.31
2017-08-03T09:47:11.228Z,88.31
2017-08-03T09:48:23.822Z,88.99
2017-08-03T09:49:35.770Z,89.13
2017-08-03T09:50:47.717Z,88.99
2017-08-03T09:52:00.292Z,89.18
2017-08-03T09:53:12.025Z,89.03
2017-08-03T09:54:24.611Z,89.13
2017-08-03T09:55:37.228Z,88.99
2017-08-03T09:56:49.227Z,88.99
2017-08-03T09:58:01.518Z,88.74
2017-08-03T09:59:13.816Z,88.74
2017-08-03T10:00:26.137Z,88.99
2017-08-03T10:01:38.763Z,89.37
2017-08-03T10:02:51.049Z,89.37
2017-08-03T10:04:02.701Z,88.99
2017-08-03T10:05:15.319Z,89.28
2017-08-03T10:06:27.886Z,89.18
2017-08-03T10:07:40.210Z,89.57
2017-08-03T10:08:52.156Z,89.67
2017-08-03T10:10:04.114Z,90.06
2017-08-03T10:11:16.411Z,90.16
2017-08-03T10:12:29.027Z,90.25
2017-08-03T10:13:41.637Z,89.96
2017-08-03T10:14:54.208Z,90.34
2017-08-03T10:16:06.760Z,90.25
2017-08-03T10:17:19.312Z,90.1
2017-08-03T10:18:31.913Z,90.78
2017-08-03T10:19:44.509Z,90
2017-08-03T10:20:56.493Z,90.1
2017-08-03T10:22:08.702Z,90.3
2017-08-03T10:23:20.933Z,90.1
2017-08-03T10:24:33.243Z,90.1
2017-08-03T10:25:45.828Z,90.58
2017-08-03T10:26:57.579Z,90.88
2017-08-03T10:28:10.176Z,90.88
2017-08-03T10:29:22.496Z,90.58
2017-08-03T10:30:35.109Z,90.58
2017-08-03T10:31:47.458Z,90.68
2017-08-03T10:32:59.715Z,90.88
2017-08-03T10:34:11.974Z,90.88
2017-08-03T10:35:24.568Z,91.07
2017-08-03T10:36:36.852Z,90.78
2017-08-03T10:37:49.373Z,90.97
2017-08-03T10:39:01.975Z,90.78
2017-08-03T10:40:13.996Z,91.02
2017-08-03T10:41:26.862Z,91.5
2017-08-03T10:42:38.914Z,90.82
2017-08-03T10:43:51.547Z,89.95
2017-08-03T10:45:03.211Z,90.19
2017-08-03T10:46:15.778Z,90.38
2017-08-03T10:47:28.067Z,90.48
2017-08-03T10:48:40.582Z,89.65
2017-08-03T10:49:52.892Z,89.36
2017-08-03T10:51:04.629Z,88.62
2017-08-03T10:52:16.686Z,88.33
2017-08-03T10:53:29.317Z,87.21
2017-08-03T10:54:41.924Z,86.72
2017-08-03T10:55:54.497Z,86.18
2017-08-03T10:57:06.494Z,86.18
2017-08-03T10:58:19.148Z,85.99
2017-08-03T10:59:31.484Z,85.54
2017-08-03T11:00:43.763Z,85.16
2017-08-03T11:01:56.386Z,85.35
2017-08-03T11:03:09.013Z,85.64
2017-08-03T11:04:21.628Z,84.96
2017-08-03T11:05:34.279Z,84.28
2017-08-03T11:06:46.501Z,84.86
2017-08-03T11:07:58.460Z,84.96
2017-08-03T11:09:10.824Z,85.44
2017-08-03T11:10:23.422Z,85.21
2017-08-03T11:11:35.698Z,85.31
2017-08-03T11:12:47.738Z,85.11
2017-08-03T11:14:00.009Z,85.21
2017-08-03T11:15:12.606Z,86.28
2017-08-03T11:16:25.204Z,86.77
2017-08-03T11:17:37.823Z,86.18
2017-08-03T11:18:49.789Z,86.47
2017-08-03T11:20:01.991Z,86.72
2017-08-03T11:21:14.659Z,86.77
2017-08-03T11:22:27.015Z,86.77
2017-08-03T11:23:39.001Z,86.77
2017-08-03T11:24:51.570Z,86.77
2017-08-03T11:26:03.860Z,87.06
2017-08-03T11:27:16.526Z,86.87
2017-08-03T11:28:29.161Z,87.06
2017-08-03T11:29:41.480Z,87.06
2017-08-03T11:30:53.454Z,86.77
2017-08-03T11:32:06.080Z,86.08
2017-08-03T11:33:18.754Z,86.28
2017-08-03T11:34:31.415Z,86.96
2017-08-03T11:35:43.719Z,87.16
2017-08-03T11:36:55.992Z,87.2
2017-08-03T11:38:07.970Z,87.74
2017-08-03T11:39:20.626Z,87.01
2017-08-03T11:40:33.287Z,86.81
2017-08-03T11:41:45.516Z,86.61
2017-08-03T11:42:57.753Z,86.32
2017-08-03T11:44:09.407Z,86.91
2017-08-03T11:45:21.962Z,87.1
2017-08-03T11:46:34.509Z,86.36
2017-08-03T11:47:46.871Z,86.03
2017-08-03T11:48:59.481Z,85.74
2017-08-03T11:50:11.792Z,85.88
2017-08-03T11:51:24.370Z,86.03
2017-08-03T11:52:36.621Z,85.93
2017-08-03T11:53:49.241Z,86.17
2017-08-03T11:55:01.483Z,86.07
2017-08-03T11:56:14.098Z,85.88
2017-08-03T11:57:26.690Z,85.29
2017-08-03T11:58:38.971Z,85.97
2017-08-03T11:59:50.962Z,85.88
2017-08-03T12:01:02.966Z,85.53
2017-08-03T12:02:15.549Z,85.53
2017-08-03T12:03:27.842Z,84.75
2017-08-03T12:04:40.474Z,84.17
2017-08-03T12:05:53.085Z,84.66
2017-08-03T12:07:05.366Z,84.36
2017-08-03T12:08:17.956Z,84.94
2017-08-03T12:09:30.277Z,85.43
2017-08-03T12:10:42.929Z,84.89
2017-08-03T12:11:55.566Z,84.36
2017-08-03T12:13:07.834Z,84.59
2017-08-03T12:14:20.405Z,84.69
2017-08-03T12:15:33.036Z,84.5
2017-08-03T12:16:45.335Z,83.72
2017-08-03T12:17:57.671Z,83.82
2017-08-03T12:19:10.221Z,84.11
2017-08-03T12:20:22.232Z,84.3
2017-08-03T12:21:34.898Z,84.01
2017-08-03T12:22:47.494Z,83.92
2017-08-03T12:24:00.039Z,83.62
2017-08-03T12:25:11.686Z,84.01
2017-08-03T12:26:24.238Z,84.11
2017-08-03T12:27:36.901Z,83.62
2017-08-03T12:28:48.592Z,84.11
2017-08-03T12:30:00.961Z,84.4
2017-08-03T12:31:12.965Z,84.01
2017-08-03T12:32:25.235Z,84.21
2017-08-03T12:33:37.813Z,84.59
2017-08-03T12:34:50.386Z,84.5
2017-08-03T12:36:02.705Z,84.5
2017-08-03T12:37:14.431Z,85.18
2017-08-03T12:38:26.747Z,84.89
2017-08-03T12:39:39.336Z,85.77
2017-08-03T12:40:51.813Z,85.18
2017-08-03T12:42:04.387Z,84.5
2017-08-03T12:43:16.673Z,85.28
2017-08-03T12:44:28.691Z,84.99
2017-08-03T12:45:41.016Z,84.64
2017-08-03T12:46:53.600Z,83.56
2017-08-03T12:48:05.880Z,83.95
2017-08-03T12:49:18.210Z,83.8
2017-08-03T12:50:30.832Z,84
2017-08-03T12:51:43.383Z,83.9
2017-08-03T12:52:55.706Z,84.39
2017-08-03T12:54:07.712Z,84.48
2017-08-03T12:55:20.366Z,84
2017-08-03T12:56:32.374Z,83.9
2017-08-03T12:57:44.682Z,83.56
2017-08-03T12:58:56.928Z,84.44
2017-08-03T13:00:09.227Z,84.44
2017-08-03T13:01:21.594Z,84.64
2017-08-03T13:02:33.940Z,84.83
2017-08-03T13:03:46.514Z,85.52
2017-08-03T13:04:58.476Z,84.93
2017-08-03T13:06:11.067Z,84.68
2017-08-03T13:07:23.123Z,84.68
2017-08-03T13:08:35.412Z,84.09
2017-08-03T13:09:47.952Z,83.26
2017-08-03T13:11:00.262Z,83.01
2017-08-03T13:12:12.569Z,82.62
2017-08-03T13:13:24.856Z,82.52
2017-08-03T13:14:37.093Z,82.52
2017-08-03T13:15:49.384Z,81.48
2017-08-03T13:17:01.656Z,81.82
2017-08-03T13:18:13.689Z,80.64
2017-08-03T13:19:26.313Z,80.68
2017-08-03T13:20:38.991Z,80.62
2017-08-03T13:21:50.976Z,79.64
2017-08-03T13:23:03.548Z,79.1
2017-08-03T13:24:15.841Z,78.9
2017-08-03T13:25:28.482Z,78.02
2017-08-03T13:26:41.096Z,77.83
2017-08-03T13:27:53.750Z,77.47
2017-08-03T13:29:06.029Z,76.98
2017-08-03T13:30:18.685Z,77.17
2017-08-03T13:31:30.750Z,77.17
2017-08-03T13:32:43.030Z,77.17
2017-08-03T13:33:55.261Z,77.17
2017-08-03T13:35:07.547Z,77.92
2017-08-03T13:36:19.582Z,78.7
2017-08-03T13:37:32.110Z,78.31
2017-08-03T13:38:44.373Z,78.22
2017-08-03T13:39:56.986Z,79.29
2017-08-03T13:41:08.992Z,78.31
2017-08-03T13:42:21.254Z,77.83
2017-08-03T13:43:33.608Z,77.23
2017-08-03T13:44:45.940Z,77.83
2017-08-03T13:45:58.563Z,78.28
2017-08-03T13:47:10.901Z,78.67
2017-08-03T13:48:23.542Z,79.06
2017-08-03T13:49:36.175Z,78.86
2017-08-03T13:50:48.107Z,78.77
2017-08-03T13:52:00.354Z,78.28
2017-08-03T13:53:12.049Z,78.28
2017-08-03T13:54:24.068Z,78.08
2017-08-03T13:55:36.662Z,78.28
2017-08-03T13:56:48.935Z,77.98
2017-08-03T13:58:00.959Z,77.83
2017-08-03T13:59:13.585Z,77.73
2017-08-03T14:00:26.186Z,78.35
2017-08-03T14:01:38.529Z,78.06
2017-08-03T14:02:50.824Z,77.17
2017-08-03T14:04:03.141Z,75.84
2017-08-03T14:05:15.681Z,75.45
2017-08-03T14:06:27.980Z,75.45
2017-08-03T14:07:40.550Z,75.65
2017-08-03T14:08:53.184Z,75.65
2017-08-03T14:10:05.530Z,76.04
2017-08-03T14:11:17.833Z,75.15
2017-08-03T14:12:30.510Z,74.96
2017-08-03T14:13:42.751Z,73.88
2017-08-03T14:14:55.089Z,74.27
2017-08-03T14:16:07.349Z,74.37
2017-08-03T14:17:19.957Z,74.51
2017-08-03T14:18:32.864Z,73.88
2017-08-03T14:19:44.629Z,74.11
2017-08-03T14:20:56.967Z,74.11
2017-08-03T14:22:09.226Z,74.31
2017-08-03T14:23:21.559Z,74.15
2017-08-03T14:24:33.869Z,74.44
2017-08-03T14:25:46.487Z,72.97
2017-08-03T14:26:58.478Z,73.75
2017-08-03T14:28:10.767Z,73.56
2017-08-03T14:29:23.073Z,73.96
2017-08-03T14:30:35.661Z,73.66
2017-08-03T14:31:48.225Z,73.46
2017-08-03T14:33:00.809Z,73.75
2017-08-03T14:34:13.067Z,72.71
2017-08-03T14:35:25.713Z,72.52
2017-08-03T14:36:38.101Z,73.01
2017-08-03T14:37:50.461Z,72.71
2017-08-03T14:39:03.048Z,71.93
2017-08-03T14:40:15.386Z,72.42
2017-08-03T14:41:27.955Z,71.93
2017-08-03T14:42:40.588Z,72.32
2017-08-03T14:43:52.546Z,73.07
2017-08-03T14:45:04.578Z,72.88
2017-08-03T14:46:16.892Z,74.51
2017-08-03T14:47:29.545Z,74.7
2017-08-03T14:48:41.849Z,75.65
2017-08-03T14:49:54.126Z,76.14
2017-08-03T14:51:06.797Z,76.2
2017-08-03T14:52:19.447Z,76.78
2017-08-03T14:53:32.123Z,77.33
2017-08-03T14:54:44.664Z,77.83
2017-08-03T14:55:57.258Z,78.77
2017-08-03T14:57:09.582Z,79.06
2017-08-03T14:58:22.175Z,78.92
2017-08-03T14:59:34.783Z,79.51
2017-08-03T15:00:47.427Z,79.17
2017-08-03T15:01:59.761Z,79.47
2017-08-03T15:03:12.393Z,79.43
2017-08-03T15:04:24.710Z,80.7
2017-08-03T15:05:37.017Z,81.29
2017-08-03T15:06:49.622Z,80.76
2017-08-03T15:08:01.973Z,80.76
2017-08-03T15:09:14.565Z,81.45
2017-08-03T15:10:26.911Z,81.4
2017-08-03T15:11:39.553Z,82.28
2017-08-03T15:12:52.110Z,82.67
2017-08-03T15:14:04.476Z,82.73
2017-08-03T15:15:17.113Z,83.02
2017-08-03T15:16:29.711Z,83.56
2017-08-03T15:17:42.026Z,83.86
2017-08-03T15:18:54.614Z,84.11
2017-08-03T15:20:07.000Z,84.79
2017-08-03T15:21:19.572Z,85.18
2017-08-03T15:22:31.858Z,88.06
2017-08-03T15:23:44.131Z,90.4
2017-08-03T15:24:56.719Z,90.94
2017-08-03T15:26:09.005Z,93.38
2017-08-03T15:27:21.600Z,97.22
2017-08-03T15:28:34.139Z,97.9
2017-08-03T15:29:46.448Z,99.99
2017-08-03T15:30:58.766Z,99.99
2017-08-03T15:32:11.411Z,99.99
2017-08-03T15:33:23.706Z,99.99
2017-08-03T15:34:36.277Z,99.99